Sparta, Canada
Current Conditions -  °F | °C
As of 4:00 PM on Monday 24 Nov 2014 (Local Time) from CYXU Reporting Station
Overcast Overcast  
Wind Chill: 33°   Ceiling: 2200
Heat Index: 45°   Visibility: 15mi
Dew Point: 37°   Wind: 41mph
Humidity: 76%   Direction: 220°SW
Pressure: 29.32"   Gusts: 56mph
Location:  42.7°N, 81.08°W
Report Text: CYXU 242100Z 22036G49KT 15SM OVC022 07/03 A2932 RMK SC8 PRESRR SLP930
Loading
Personal Weather Stations






























Interactive Weather Map New forecast layout! Learn more

10-Day Weather Forecast

Advertisements
Track Severe Weather on mobile